createdAt,value
2022-07-25T00:02:07.398Z,17.05
2022-07-25T00:04:35.847Z,17.00
2022-07-25T00:07:03.177Z,16.98
2022-07-25T00:09:29.927Z,16.99
2022-07-25T00:11:56.722Z,16.96
2022-07-25T00:14:23.479Z,16.93
2022-07-25T00:16:50.262Z,16.88
2022-07-25T00:19:17.277Z,16.84
2022-07-25T00:21:44.871Z,16.83
2022-07-25T00:24:11.631Z,16.80
2022-07-25T00:26:40.422Z,16.75
2022-07-25T00:29:07.704Z,16.71
2022-07-25T00:31:34.627Z,16.67
2022-07-25T00:34:01.833Z,16.63
2022-07-25T00:36:28.700Z,16.61
2022-07-25T00:38:55.501Z,16.57
2022-07-25T00:41:22.331Z,16.53
2022-07-25T00:43:49.164Z,16.50
2022-07-25T00:46:18.898Z,16.44
2022-07-25T00:48:46.518Z,16.39
2022-07-25T00:51:13.678Z,16.34
2022-07-25T00:53:40.523Z,16.31
2022-07-25T00:56:07.900Z,16.25
2022-07-25T00:58:34.703Z,16.24
2022-07-25T01:01:02.336Z,16.19
2022-07-25T01:03:29.249Z,16.15
2022-07-25T01:05:55.984Z,16.12
2022-07-25T01:08:23.023Z,16.09
2022-07-25T01:10:50.380Z,16.07
2022-07-25T01:13:17.244Z,16.04
2022-07-25T01:15:44.110Z,16.02
2022-07-25T01:18:11.478Z,15.99
2022-07-25T01:20:38.361Z,15.96
2022-07-25T01:23:05.222Z,15.93
2022-07-25T01:25:32.020Z,15.90
2022-07-25T01:27:58.888Z,15.87
2022-07-25T01:30:25.910Z,15.84
2022-07-25T01:32:53.176Z,15.82
2022-07-25T01:35:20.373Z,15.77
2022-07-25T01:37:47.237Z,15.76
2022-07-25T01:40:14.955Z,15.73
2022-07-25T01:42:42.722Z,15.71
2022-07-25T01:45:10.231Z,15.69
2022-07-25T01:47:37.572Z,15.65
2022-07-25T01:50:05.746Z,15.62
2022-07-25T01:52:32.587Z,15.57
2022-07-25T01:54:59.596Z,15.55
2022-07-25T01:57:30.790Z,15.52
2022-07-25T01:59:59.235Z,15.56
2022-07-25T02:02:26.012Z,15.58
2022-07-25T02:04:52.927Z,15.58
2022-07-25T02:07:19.763Z,15.54
2022-07-25T02:09:46.689Z,15.53
2022-07-25T02:12:13.657Z,15.52
2022-07-25T02:14:40.889Z,15.55
2022-07-25T02:17:08.164Z,15.54
2022-07-25T02:19:36.036Z,15.54
2022-07-25T02:22:03.620Z,15.55
2022-07-25T02:24:30.363Z,15.52
2022-07-25T02:26:57.108Z,15.54
2022-07-25T02:29:24.125Z,15.52
2022-07-25T02:31:53.053Z,15.48
2022-07-25T02:34:19.784Z,15.47
2022-07-25T02:36:46.929Z,15.45
2022-07-25T02:39:13.998Z,15.48
2022-07-25T02:41:40.873Z,15.59
2022-07-25T02:44:08.185Z,15.72
2022-07-25T02:46:35.334Z,15.85
2022-07-25T02:49:02.961Z,15.98
2022-07-25T02:51:30.013Z,16.15
2022-07-25T02:53:58.422Z,16.33
2022-07-25T02:56:30.378Z,16.51
2022-07-25T02:58:59.593Z,16.67
2022-07-25T03:01:27.012Z,16.80
2022-07-25T03:03:54.039Z,16.98
2022-07-25T03:06:20.822Z,17.17
2022-07-25T03:08:47.839Z,17.34
2022-07-25T03:11:14.758Z,17.52
2022-07-25T03:13:41.541Z,17.69
2022-07-25T03:16:09.819Z,17.90
2022-07-25T03:18:37.272Z,18.15
2022-07-25T03:21:04.268Z,18.37
2022-07-25T03:23:31.347Z,18.63
2022-07-25T03:25:58.273Z,18.87
2022-07-25T03:28:25.251Z,19.05
2022-07-25T03:30:53.119Z,18.93
2022-07-25T03:33:19.944Z,18.62
2022-07-25T03:35:47.051Z,18.37
2022-07-25T03:38:13.900Z,18.20
2022-07-25T03:40:40.739Z,18.12
2022-07-25T03:43:07.529Z,18.28
2022-07-25T03:45:34.524Z,18.43
2022-07-25T03:48:01.561Z,18.44
2022-07-25T03:50:28.374Z,18.66
2022-07-25T03:52:55.213Z,18.66
2022-07-25T03:55:21.977Z,18.62
2022-07-25T03:57:48.753Z,18.59
2022-07-25T04:00:15.753Z,18.70
2022-07-25T04:02:42.652Z,18.88
2022-07-25T04:05:09.825Z,19.15
2022-07-25T04:07:37.166Z,19.93
2022-07-25T04:10:06.175Z,20.75
2022-07-25T04:12:33.946Z,21.19
2022-07-25T04:15:01.267Z,21.04
2022-07-25T04:17:28.128Z,20.86
2022-07-25T04:19:54.955Z,20.79
2022-07-25T04:22:22.535Z,21.31
2022-07-25T04:24:49.363Z,21.98
2022-07-25T04:27:16.783Z,22.48
2022-07-25T04:29:43.725Z,23.04
2022-07-25T04:32:10.643Z,23.46
2022-07-25T04:34:37.448Z,23.71
2022-07-25T04:37:04.238Z,23.96
2022-07-25T04:39:31.076Z,24.27
2022-07-25T04:41:57.913Z,24.71
2022-07-25T04:44:24.677Z,25.11
2022-07-25T04:46:51.467Z,25.53
2022-07-25T04:49:18.289Z,25.84
2022-07-25T04:51:45.108Z,26.07
2022-07-25T04:54:11.985Z,26.26
2022-07-25T04:56:38.892Z,26.50
2022-07-25T04:59:06.162Z,26.63
2022-07-25T05:01:34.347Z,26.66
2022-07-25T05:04:01.219Z,26.84
2022-07-25T05:06:28.124Z,27.08
2022-07-25T05:08:55.471Z,27.35
2022-07-25T05:11:22.524Z,27.69
2022-07-25T05:13:49.423Z,27.89
2022-07-25T05:16:16.370Z,28.14
2022-07-25T05:18:43.324Z,28.26
2022-07-25T05:21:12.333Z,28.35
2022-07-25T05:23:39.910Z,28.49
2022-07-25T05:26:06.650Z,28.50
2022-07-25T05:28:34.016Z,28.50
2022-07-25T05:31:00.968Z,28.72
2022-07-25T05:33:27.927Z,29.10
2022-07-25T05:35:54.803Z,29.55
2022-07-25T05:38:21.783Z,29.90
2022-07-25T05:40:49.280Z,30.24
2022-07-25T05:43:16.106Z,30.58
2022-07-25T05:45:43.297Z,30.92
2022-07-25T05:48:10.191Z,31.05
2022-07-25T05:50:37.548Z,30.90
2022-07-25T05:53:04.342Z,30.79
2022-07-25T05:55:31.116Z,30.73
2022-07-25T05:57:58.087Z,30.84
2022-07-25T06:00:25.389Z,30.96
2022-07-25T06:02:52.548Z,31.25
2022-07-25T06:05:19.468Z,31.56
2022-07-25T06:07:46.339Z,31.84
2022-07-25T06:10:13.149Z,32.02
2022-07-25T06:12:39.970Z,32.20
2022-07-25T06:15:12.462Z,32.35
2022-07-25T06:17:48.900Z,32.51
2022-07-25T06:20:15.649Z,32.85
2022-07-25T06:22:42.448Z,33.08
2022-07-25T06:25:09.853Z,33.41
2022-07-25T06:27:38.342Z,33.66
2022-07-25T06:30:18.667Z,34.11
2022-07-25T06:32:46.316Z,34.44
2022-07-25T06:35:13.151Z,34.46
2022-07-25T06:37:40.445Z,34.31
2022-07-25T06:40:08.365Z,34.25
2022-07-25T06:42:46.094Z,34.08
2022-07-25T06:45:14.523Z,33.73
2022-07-25T06:47:42.624Z,33.00
2022-07-25T06:50:13.311Z,32.27
2022-07-25T06:52:40.769Z,31.64
2022-07-25T06:55:09.564Z,31.30
2022-07-25T06:57:36.917Z,31.32
2022-07-25T07:00:09.617Z,31.22
2022-07-25T07:02:48.336Z,31.53
2022-07-25T07:05:15.295Z,31.73
2022-07-25T07:07:47.175Z,31.87
2022-07-25T07:10:14.768Z,32.09
2022-07-25T07:12:41.713Z,31.81
2022-07-25T07:15:09.200Z,31.71
2022-07-25T07:17:36.042Z,31.23
2022-07-25T07:20:04.673Z,31.39
2022-07-25T07:22:31.513Z,32.51
2022-07-25T07:24:58.310Z,33.52
2022-07-25T07:27:25.254Z,33.47
2022-07-25T07:29:51.986Z,32.81
2022-07-25T07:32:18.859Z,33.46
2022-07-25T07:34:45.874Z,33.70
2022-07-25T07:37:12.611Z,33.17
2022-07-25T07:39:40.513Z,33.04
2022-07-25T07:42:07.401Z,33.13
2022-07-25T07:44:34.264Z,33.00
2022-07-25T07:47:02.807Z,33.13
2022-07-25T07:49:29.842Z,33.39
2022-07-25T07:51:56.905Z,33.61
2022-07-25T07:54:42.513Z,33.31
2022-07-25T07:57:09.345Z,33.25
2022-07-25T07:59:36.168Z,34.06
2022-07-25T08:02:02.973Z,34.31
2022-07-25T08:04:29.900Z,34.75
2022-07-25T08:06:56.668Z,35.40
2022-07-25T08:09:25.798Z,35.71
2022-07-25T08:11:53.328Z,36.03
2022-07-25T08:14:20.271Z,36.61
2022-07-25T08:16:47.072Z,37.10
2022-07-25T08:19:13.936Z,37.43
2022-07-25T08:21:40.758Z,38.03
2022-07-25T08:24:07.965Z,38.46
2022-07-25T08:26:37.157Z,38.70
2022-07-25T08:29:18.841Z,38.56
2022-07-25T08:31:46.953Z,38.84
2022-07-25T08:34:13.884Z,39.27
2022-07-25T08:36:40.885Z,39.91
2022-07-25T08:39:07.658Z,40.27
2022-07-25T08:41:34.486Z,40.29
2022-07-25T08:44:02.895Z,40.41
2022-07-25T08:46:30.296Z,40.74
2022-07-25T08:48:57.288Z,39.98
2022-07-25T08:51:24.581Z,39.51
2022-07-25T08:53:52.039Z,39.64
2022-07-25T08:56:21.644Z,40.08
2022-07-25T08:58:49.660Z,40.09
2022-07-25T09:04:56.099Z,40.68
2022-07-25T09:11:51.718Z,41.80
2022-07-25T09:14:18.580Z,41.41
2022-07-25T09:16:45.524Z,40.24
2022-07-25T09:19:15.423Z,39.26
2022-07-25T09:21:45.605Z,37.79
2022-07-25T09:24:17.917Z,37.78
2022-07-25T09:26:44.662Z,38.59
2022-07-25T09:29:31.741Z,39.66
2022-07-25T09:32:00.094Z,39.69
2022-07-25T09:34:40.797Z,39.01
2022-07-25T09:37:09.825Z,38.35
2022-07-25T09:39:47.141Z,38.07
2022-07-25T09:42:19.497Z,37.66
2022-07-25T09:44:57.904Z,37.02
2022-07-25T09:47:24.892Z,36.38
2022-07-25T09:49:52.353Z,35.63
2022-07-25T09:52:19.467Z,34.94
2022-07-25T09:54:46.272Z,34.09
2022-07-25T09:57:13.088Z,33.32
2022-07-25T09:59:39.890Z,33.56
2022-07-25T10:02:25.877Z,34.86
2022-07-25T10:05:30.162Z,35.67
2022-07-25T10:07:57.959Z,35.76
2022-07-25T10:10:27.924Z,35.60
2022-07-25T10:13:01.904Z,35.17
2022-07-25T10:15:53.605Z,34.58
2022-07-25T10:18:22.778Z,34.03
2022-07-25T10:20:52.339Z,33.86
2022-07-25T10:23:24.179Z,34.01
2022-07-25T10:26:08.825Z,34.02
2022-07-25T10:28:39.081Z,33.88
2022-07-25T10:31:22.575Z,33.93
2022-07-25T10:33:52.540Z,34.69
2022-07-25T10:36:20.257Z,35.17
2022-07-25T10:38:47.518Z,35.31
2022-07-25T10:41:16.690Z,35.19
2022-07-25T10:43:48.676Z,34.90
2022-07-25T10:46:20.530Z,34.52
2022-07-25T10:49:01.828Z,34.93
2022-07-25T10:51:32.435Z,35.79
2022-07-25T10:53:59.246Z,37.04
2022-07-25T10:56:28.651Z,38.12
2022-07-25T10:58:58.441Z,38.37
2022-07-25T11:01:34.367Z,38.19
2022-07-25T11:04:05.866Z,37.62
2022-07-25T11:06:42.635Z,36.78
2022-07-25T11:09:27.862Z,35.80
2022-07-25T11:11:57.934Z,34.72
2022-07-25T11:14:33.945Z,33.74
2022-07-25T11:17:22.563Z,32.83
2022-07-25T11:20:05.536Z,32.06
2022-07-25T11:22:33.189Z,31.43
2022-07-25T11:25:00.962Z,31.43
2022-07-25T11:27:33.715Z,32.18
2022-07-25T11:30:09.585Z,33.51
2022-07-25T11:32:43.317Z,35.09
2022-07-25T11:35:11.749Z,36.42
2022-07-25T11:37:41.178Z,37.78
2022-07-25T11:40:09.669Z,38.89
2022-07-25T11:42:45.467Z,39.32
2022-07-25T11:45:33.615Z,39.46
2022-07-25T11:48:07.499Z,39.91
2022-07-25T11:50:36.531Z,39.63
2022-07-25T11:53:06.002Z,39.40
2022-07-25T11:55:37.372Z,38.91
2022-07-25T11:58:05.567Z,38.00
2022-07-25T12:00:40.492Z,37.05
2022-07-25T12:03:12.109Z,36.64
2022-07-25T12:05:42.499Z,36.87
2022-07-25T12:08:14.758Z,37.46
2022-07-25T12:10:43.769Z,38.03
2022-07-25T12:13:22.499Z,38.98
2022-07-25T12:15:49.348Z,39.81
2022-07-25T12:18:16.118Z,40.58
2022-07-25T12:20:44.024Z,41.26
2022-07-25T12:23:13.276Z,41.60
2022-07-25T12:25:45.790Z,41.39
2022-07-25T12:28:13.161Z,41.38
2022-07-25T12:30:42.495Z,40.83
2022-07-25T12:33:09.841Z,39.78
2022-07-25T12:35:37.546Z,38.65
2022-07-25T12:38:04.918Z,37.52
2022-07-25T12:40:32.476Z,36.64
2022-07-25T12:43:01.240Z,36.26
2022-07-25T12:45:28.337Z,35.83
2022-07-25T12:47:55.840Z,35.60
2022-07-25T12:50:25.633Z,35.18
2022-07-25T12:52:52.960Z,34.65
2022-07-25T12:55:21.197Z,34.11
2022-07-25T12:57:48.175Z,34.32
2022-07-25T13:00:18.585Z,35.06
2022-07-25T13:02:45.555Z,35.91
2022-07-25T13:05:12.807Z,36.71
2022-07-25T13:07:39.970Z,37.54
2022-07-25T13:10:07.543Z,37.61
2022-07-25T13:12:35.514Z,37.26
2022-07-25T13:15:02.815Z,37.04
2022-07-25T13:17:29.660Z,37.11
2022-07-25T13:19:57.195Z,36.96
2022-07-25T13:22:24.853Z,36.25
2022-07-25T13:24:52.034Z,35.50
2022-07-25T13:27:20.307Z,34.62
2022-07-25T13:29:47.400Z,33.80
2022-07-25T13:32:14.257Z,33.24
2022-07-25T13:34:41.135Z,33.30
2022-07-25T13:37:08.095Z,33.76
2022-07-25T13:39:35.894Z,34.44
2022-07-25T13:42:03.177Z,35.08
2022-07-25T13:44:29.961Z,35.59
2022-07-25T13:46:58.617Z,36.16
2022-07-25T13:49:26.096Z,36.80
2022-07-25T13:51:52.948Z,36.97
2022-07-25T13:54:19.781Z,36.50
2022-07-25T13:56:47.592Z,35.90
2022-07-25T13:59:20.439Z,35.15
2022-07-25T14:01:48.386Z,34.40
2022-07-25T14:04:15.279Z,33.79
2022-07-25T14:06:42.294Z,33.36
2022-07-25T14:09:09.776Z,33.33
2022-07-25T14:11:36.966Z,33.50
2022-07-25T14:14:03.847Z,33.80
2022-07-25T14:16:30.783Z,34.23
2022-07-25T14:18:57.738Z,34.70
2022-07-25T14:21:25.409Z,35.12
2022-07-25T14:23:52.507Z,35.17
2022-07-25T14:26:19.384Z,34.99
2022-07-25T14:28:46.346Z,34.65
2022-07-25T14:31:13.280Z,34.21
2022-07-25T14:33:40.655Z,33.78
2022-07-25T14:36:10.010Z,33.33
2022-07-25T14:38:37.307Z,33.07
2022-07-25T14:41:09.173Z,33.01
2022-07-25T14:43:38.994Z,32.75
2022-07-25T14:46:05.897Z,32.39
2022-07-25T14:48:32.736Z,31.91
2022-07-25T14:50:59.647Z,31.48
2022-07-25T14:53:26.419Z,30.97
2022-07-25T14:55:53.619Z,30.67
2022-07-25T14:58:20.440Z,30.57
2022-07-25T15:00:47.575Z,30.42
2022-07-25T15:03:15.506Z,30.19
2022-07-25T15:05:42.336Z,29.89
2022-07-25T15:08:09.425Z,29.64
2022-07-25T15:10:36.321Z,29.51
2022-07-25T15:13:29.438Z,29.47
2022-07-25T15:15:49.924Z,29.53
2022-07-25T15:18:16.685Z,29.50
2022-07-25T15:20:43.474Z,29.36
2022-07-25T15:23:10.330Z,29.16
2022-07-25T15:28:24.410Z,29.11
2022-07-25T15:30:51.605Z,29.12
2022-07-25T15:33:19.149Z,28.94
2022-07-25T15:35:46.624Z,28.68
2022-07-25T15:38:15.908Z,28.43
2022-07-25T15:40:44.081Z,28.21
2022-07-25T15:43:11.956Z,28.10
2022-07-25T15:45:40.813Z,27.42
2022-07-25T15:48:09.510Z,27.32
2022-07-25T15:50:39.469Z,27.26
2022-07-25T15:53:06.885Z,27.15
2022-07-25T15:55:33.941Z,27.34
2022-07-25T15:58:01.231Z,27.31
2022-07-25T16:00:29.784Z,27.44
2022-07-25T16:02:57.077Z,27.37
2022-07-25T16:05:24.188Z,27.40
2022-07-25T16:07:51.037Z,27.33
2022-07-25T16:10:18.327Z,27.21
2022-07-25T16:12:45.607Z,27.08
2022-07-25T16:15:13.088Z,26.92
2022-07-25T16:17:39.890Z,26.89
2022-07-25T16:20:09.216Z,26.72
2022-07-25T16:22:36.362Z,26.48
2022-07-25T16:25:04.499Z,26.31
2022-07-25T16:27:31.550Z,26.12
2022-07-25T16:29:58.563Z,25.86
2022-07-25T16:32:25.457Z,25.61
2022-07-25T16:34:52.452Z,25.37
2022-07-25T16:37:20.245Z,25.12
2022-07-25T16:39:47.074Z,24.86
2022-07-25T16:42:13.842Z,24.63
2022-07-25T16:44:41.062Z,24.44
2022-07-25T16:47:08.400Z,24.26
2022-07-25T16:49:35.236Z,24.10
2022-07-25T16:52:02.059Z,23.97
2022-07-25T16:54:29.543Z,23.84
2022-07-25T16:56:59.672Z,23.71
2022-07-25T16:59:27.246Z,23.58
2022-07-25T17:01:54.235Z,23.48
2022-07-25T17:04:21.149Z,23.36
2022-07-25T17:06:49.167Z,23.27
2022-07-25T17:09:16.021Z,23.17
2022-07-25T17:11:43.349Z,23.07
2022-07-25T17:14:10.169Z,22.98
2022-07-25T17:16:37.145Z,22.84
2022-07-25T17:19:04.148Z,22.71
2022-07-25T17:21:31.126Z,22.57
2022-07-25T17:23:57.940Z,22.42
2022-07-25T17:26:24.766Z,22.27
2022-07-25T17:28:52.080Z,22.12
2022-07-25T17:31:18.979Z,21.95
2022-07-25T17:33:45.808Z,21.78
2022-07-25T17:36:12.753Z,21.63
2022-07-25T17:38:39.727Z,21.45
2022-07-25T17:41:06.772Z,21.26
2022-07-25T17:43:33.589Z,21.08
2022-07-25T17:46:00.544Z,20.91
2022-07-25T17:48:27.442Z,20.78
2022-07-25T17:50:54.393Z,20.62
2022-07-25T17:53:21.327Z,20.49
2022-07-25T17:55:48.388Z,20.35
2022-07-25T17:58:15.292Z,20.25
2022-07-25T18:00:42.174Z,20.12
2022-07-25T18:03:09.271Z,20.00
2022-07-25T18:05:36.082Z,19.90
2022-07-25T18:08:03.245Z,19.82
2022-07-25T18:10:30.390Z,19.77
2022-07-25T18:13:00.269Z,19.77
2022-07-25T18:15:27.149Z,19.79
2022-07-25T18:17:54.185Z,19.85
2022-07-25T18:20:21.221Z,19.89
2022-07-25T18:22:48.242Z,19.93
2022-07-25T18:25:15.583Z,19.97
2022-07-25T18:27:44.625Z,20.01
2022-07-25T18:30:13.065Z,20.05
2022-07-25T18:32:40.080Z,20.12
2022-07-25T18:35:08.032Z,20.18
2022-07-25T18:37:37.035Z,20.23
2022-07-25T18:40:08.437Z,20.28
2022-07-25T18:42:35.849Z,20.30
2022-07-25T18:45:03.838Z,20.33
2022-07-25T18:47:34.858Z,20.36
2022-07-25T18:50:02.766Z,20.38
2022-07-25T18:52:36.085Z,20.43
2022-07-25T18:55:05.377Z,20.44
2022-07-25T18:57:32.298Z,20.46
2022-07-25T19:00:02.840Z,20.47
2022-07-25T19:02:30.470Z,20.49
2022-07-25T19:04:57.396Z,20.50
2022-07-25T19:07:25.953Z,20.51
2022-07-25T19:09:52.824Z,20.51
2022-07-25T19:12:19.647Z,20.49
2022-07-25T19:14:46.494Z,20.48
2022-07-25T19:17:13.485Z,20.45
2022-07-25T19:19:40.341Z,20.40
2022-07-25T19:22:08.012Z,20.34
2022-07-25T19:24:34.795Z,20.25
2022-07-25T19:27:04.361Z,20.14
2022-07-25T19:29:31.386Z,20.01
2022-07-25T19:31:58.273Z,19.89
2022-07-25T19:34:25.135Z,19.79
2022-07-25T19:36:52.209Z,19.68
2022-07-25T19:39:19.009Z,19.58
2022-07-25T19:41:48.376Z,19.49
2022-07-25T19:44:15.331Z,19.39
2022-07-25T19:46:42.450Z,19.30
2022-07-25T19:49:09.388Z,19.20
2022-07-25T19:51:36.555Z,19.11
2022-07-25T19:54:04.076Z,19.03
2022-07-25T19:56:31.858Z,18.95
2022-07-25T19:58:58.643Z,18.90
2022-07-25T20:01:25.945Z,18.88
2022-07-25T20:03:52.771Z,18.88
2022-07-25T20:06:20.805Z,18.88
2022-07-25T20:08:48.032Z,18.88
2022-07-25T20:11:15.587Z,18.90
2022-07-25T20:13:42.760Z,18.90
2022-07-25T20:16:10.057Z,18.89
2022-07-25T20:18:36.932Z,18.89
2022-07-25T20:21:04.667Z,18.87
2022-07-25T20:23:31.570Z,18.83
2022-07-25T20:25:58.508Z,18.78
2022-07-25T20:28:25.289Z,18.72
2022-07-25T20:30:52.262Z,18.62
2022-07-25T20:33:19.238Z,18.49
2022-07-25T20:35:46.815Z,18.33
2022-07-25T20:38:13.641Z,18.18
2022-07-25T20:40:48.123Z,18.01
2022-07-25T20:43:16.299Z,17.84
2022-07-25T20:45:43.214Z,17.71
2022-07-25T20:48:10.109Z,17.59
2022-07-25T20:50:37.708Z,17.46
2022-07-25T20:53:06.175Z,17.35
2022-07-25T20:55:33.867Z,17.25
2022-07-25T20:58:01.240Z,17.15
2022-07-25T21:00:30.414Z,17.06
2022-07-25T21:02:58.492Z,16.98
2022-07-25T21:05:25.772Z,16.89
2022-07-25T21:07:53.061Z,16.83
2022-07-25T21:10:20.250Z,16.76
2022-07-25T21:12:47.409Z,16.71
2022-07-25T21:15:14.950Z,16.64
2022-07-25T21:17:42.067Z,16.60
2022-07-25T21:20:11.649Z,16.54
2022-07-25T21:22:39.102Z,16.50
2022-07-25T21:25:08.174Z,16.45
2022-07-25T21:27:36.924Z,16.39
2022-07-25T21:30:09.340Z,16.34
2022-07-25T21:32:36.320Z,16.29
2022-07-25T21:35:04.986Z,16.26
2022-07-25T21:37:32.201Z,16.19
2022-07-25T21:39:59.264Z,16.13
2022-07-25T21:42:26.130Z,16.08
2022-07-25T21:44:52.885Z,16.04
2022-07-25T21:47:19.870Z,16.00
2022-07-25T21:52:34.759Z,15.89
2022-07-25T21:55:03.706Z,15.84
2022-07-25T21:57:31.145Z,15.80
2022-07-25T21:59:58.032Z,15.76
2022-07-25T22:02:24.847Z,15.73
2022-07-25T22:04:51.765Z,15.70
2022-07-25T22:07:18.952Z,15.66
2022-07-25T22:09:45.848Z,15.62
2022-07-25T22:12:12.900Z,15.59
2022-07-25T22:14:39.766Z,15.56
2022-07-25T22:17:06.595Z,15.52
2022-07-25T22:19:33.841Z,15.48
2022-07-25T22:22:00.683Z,15.43
2022-07-25T22:24:27.537Z,15.37
2022-07-25T22:26:54.459Z,15.33
2022-07-25T22:29:21.274Z,15.28
2022-07-25T22:31:48.702Z,15.24
2022-07-25T22:34:15.651Z,15.19
2022-07-25T22:36:42.472Z,15.13
2022-07-25T22:39:09.817Z,15.07
2022-07-25T22:41:36.873Z,15.02
2022-07-25T22:44:03.836Z,14.98
2022-07-25T22:46:31.401Z,14.93
2022-07-25T22:48:59.576Z,14.88
2022-07-25T22:51:27.857Z,14.84
2022-07-25T22:53:55.409Z,14.79
2022-07-25T22:56:22.516Z,14.75
2022-07-25T22:58:49.546Z,14.73
2022-07-25T23:01:17.918Z,14.70
2022-07-25T23:03:45.546Z,14.66
2022-07-25T23:06:12.929Z,14.62
2022-07-25T23:08:39.752Z,14.57
2022-07-25T23:11:06.598Z,14.53
2022-07-25T23:13:34.509Z,14.49
2022-07-25T23:16:03.298Z,14.48
2022-07-25T23:18:30.985Z,14.43
2022-07-25T23:20:58.282Z,14.42
2022-07-25T23:23:25.508Z,14.43
2022-07-25T23:25:52.335Z,14.41
2022-07-25T23:28:19.403Z,14.37
2022-07-25T23:30:46.161Z,14.33
2022-07-25T23:33:13.068Z,14.28
2022-07-25T23:35:39.962Z,14.25
2022-07-25T23:38:09.703Z,14.26
2022-07-25T23:40:36.589Z,14.25
2022-07-25T23:43:03.425Z,14.25
2022-07-25T23:45:30.398Z,14.26
2022-07-25T23:47:57.509Z,14.24
2022-07-25T23:50:24.887Z,14.23
2022-07-25T23:52:52.139Z,14.22
2022-07-25T23:55:19.930Z,14.22
2022-07-25T23:57:46.760Z,14.19
